Terminal Aerodrome Forecast
Issued by NWS Milwaukee/Sullivan, WI

Home | Current Version | Previous Version | Text Only | Print | Product List | Glossary On
Versions: 1 2 3 4 5 6 7 8 9 10 11 12 13 14 15 16 17 18 19 20
000
FTUS43 KMKX 200520
TAFMKE
TAF
KMKE 200520Z 2006/2112 19007KT P6SM FEW250
     FM200800 20006KT P6SM SKC
     FM201300 20007KT P6SM FEW250
     FM210100 18008KT P6SM FEW250 WS020/20030KT=

USA.gov is the U.S. government's official web portal to all federal, state and local government web resources and services.